昆明 の空港の天気 - METARとTAF

昆明巫家餽国際空港 ( ZPPP / KMG ) - 中華人民共和国 雲南省昆明市
飛行場実況気象(Metar)
観測時間05/25 18:00 CST (05/25 10:00 UTC)
風向・風速東北東 4m/s
視程10km以上
天気現象
少しの雲 雲底高度 790m
全天を覆う雲 雲底高度 1400m
気温15℃
湿度63%
気圧1022hPa
METARZPPP 251000Z 06004MPS 040V100 9999 FEW026 OVC046 15/08 Q1022 NOSIG
過去の天気等 Google飛行場航空写真 Wunderground天気予報

過去48時間のMETAR

飛行場予報(TAF)
発表時間: 5/25 09:13 CST (5/25 01:13 UTC)
予報対象時間: 25日14時 CST ~ 26日14時 CST
風向・風速北東 5m/s
視程10km以上
全天の4割程度の雲 雲底高度 700m
全天の8割程度の雲 雲底高度 1,010m
TAF ZPPP 250113Z 2506/2606 04005MPS 9999 SCT023 BKN033 TX14/2508Z TN08/2522Z